Latest Weather Observations for Gabo Island

IDV60801

Issued at 2:32 pm EST Sunday 28 May 2017 (issued every 30 minutes, with the page automatically refreshed every 10 minutes)

About weather observations | Map of weather stations | Latest weather observations for VIC | Other Formats
Station Details ID: 084016 Name: GABO ISLAND LIGHTHOUSE Lat: -37.57 Lon: 149.92 Height: 15.2 m
Data from the previous 72 hours. | See also: Recent months at Gabo Island
Date/Time
EST
Temp
°C
App
Temp
°C
Dew
Point
°C
Rel
Hum
%
Delta-T
°C
Wind Press
QNH
hPa
Press
MSL
hPa
Rain since
9am
mm
Dir  Spd
km/h
Gust
km/h
Spd
kts
Gust
kts
28/02:30pm 15.1 6.1 8.8 66 3.2 SSW 46 54 25 29 1004.7 - 0.0
28/02:12pm 16.4 8.3 9.9 65 3.4 SSW 43 57 23 31 1004.6 - 0.0
28/02:00pm 19.0 15.1 7.2 46 6.0 W 17 26 9 14 1004.5 - 0.0
28/01:35pm 17.8 11.7 6.5 47 5.6 WSW 28 54 15 29 1004.4 - 0.0
28/01:30pm 18.5 13.1 8.0 50 5.4 WSW 26 33 14 18 1004.4 - 0.0
28/01:00pm 18.9 16.5 8.5 51 5.4 W 11 20 6 11 1004.4 - 0.0
28/12:30pm 20.3 16.6 6.2 40 7.1 WNW 15 22 8 12 1004.6 - 0.0
28/12:00pm 19.7 16.1 6.6 42 6.6 NNW 15 22 8 12 1005.2 1005.2 0.0
28/11:30am 18.0 13.3 5.2 43 6.2 NW 19 28 10 15 1005.5 - 0.0
28/11:00am 18.1 13.4 5.9 44 6.0 NNW 20 32 11 17 1005.9 - 0.0
28/10:30am 19.0 13.5 6.1 43 6.4 NNW 24 33 13 18 1006.2 - 0.0
28/10:00am 17.5 12.7 5.8 46 5.7 NW 20 33 11 18 1006.4 - 0.0
28/09:30am 17.4 14.6 6.8 49 5.3 N 11 15 6 8 1006.0 - 0.0
28/09:00am 14.9 12.9 8.6 66 3.2 NNE 9 11 5 6 1006.7 1006.6 0.0
28/08:30am 14.7 11.4 7.9 63 3.4 N 15 20 8 11 1006.7 - 0.0
28/08:00am 14.5 11.1 7.7 63 3.4 N 15 19 8 10 1006.8 - 0.0
28/07:30am 14.3 10.3 6.7 60 3.7 N 17 19 9 10 1007.2 - 0.0
28/07:00am 13.1 9.2 6.9 66 3.0 N 17 20 9 11 1007.3 - 0.0
28/06:30am 12.8 8.9 7.0 68 2.8 N 17 20 9 11 1007.3 - 0.0
28/06:00am 13.7 9.3 6.4 61 3.5 N 19 22 10 12 1007.6 1007.6 0.0
28/05:30am 13.7 9.8 6.9 63 3.3 N 17 22 9 12 1007.7 - 0.0
28/05:00am 14.4 10.2 7.3 62 3.5 NNE 19 24 10 13 1007.8 - 0.0
28/04:30am 13.5 11.0 8.1 70 2.7 NNE 11 13 6 7 1008.5 - 0.0
28/04:00am 13.6 9.9 8.0 69 2.8 NNE 17 20 9 11 1008.5 - 0.0
28/03:30am 13.9 9.7 8.3 69 2.8 N 20 24 11 13 1008.7 - 0.0
28/03:00am 13.1 9.8 9.4 78 1.9 N 17 20 9 11 1009.3 1009.4 0.0
28/02:30am 13.6 10.3 9.5 76 2.1 N 17 20 9 11 1010.0 - 0.0
28/02:00am 12.9 9.8 10.4 85 1.3 N 17 19 9 10 1010.5 - 0.0
28/01:30am 12.7 10.0 10.2 85 1.3 NNW 15 17 8 9 1010.7 - 0.0
28/01:00am 13.0 10.5 11.1 88 1.0 W 15 17 8 9 1011.1 - 0.0
28/12:30am 13.5 11.2 10.4 81 1.6 N 13 17 7 9 1011.6 - 0.0
28/12:00am 14.4 12.2 10.8 79 1.9 N 13 20 7 11 1011.7 1011.7 0.0
 
Date/Time
EST
Temp
°C
App
Temp
°C
Dew
Point
°C
Rel
Hum
%
Delta-T
°C
Wind Press
QNH
hPa
Press
MSL
hPa
Rain since
9am
mm
Dir  Spd
km/h
Gust
km/h
Spd
kts
Gust
kts
27/11:30pm 15.1 11.9 12.0 82 1.7 NNE 20 26 11 14 1011.8 - 0.0
27/11:00pm 15.1 10.9 12.5 84 1.4 NNE 26 33 14 18 1012.1 - 0.0
27/10:30pm 16.0 10.5 10.7 71 2.8 N 30 37 16 20 1012.4 - 0.0
27/10:00pm 15.4 10.4 11.1 75 2.3 N 28 33 15 18 1012.7 - 0.0
27/09:30pm 15.8 11.3 11.5 75 2.3 NNE 26 32 14 17 1013.2 - 0.0
27/09:00pm 15.9 10.3 11.6 75 2.3 NNE 32 39 17 21 1013.2 1013.2 0.0
27/08:30pm 15.6 11.8 12.3 81 1.8 NNE 24 32 13 17 1013.6 - 0.0
27/08:00pm 15.0 10.9 12.6 85 1.3 NNE 26 32 14 17 1013.8 - 0.0
27/07:30pm 14.8 11.3 12.2 84 1.4 NNE 22 28 12 15 1014.3 - 0.0
27/07:00pm 15.0 11.0 11.9 82 1.7 NNE 24 28 13 15 1014.3 - 0.0
27/06:30pm 15.1 11.0 11.6 79 1.9 N 24 28 13 15 1014.7 - 0.0
27/06:00pm 15.1 11.7 11.4 78 2.0 NNE 20 26 11 14 1014.7 1014.8 0.0
27/05:30pm 15.0 11.8 11.3 78 2.0 N 19 24 10 13 1015.0 - 0.0
27/05:00pm 16.0 12.8 11.1 72 2.6 NNE 19 24 10 13 1015.2 - 0.0
27/04:30pm 16.4 12.9 10.8 69 3.0 NNE 20 24 11 13 1015.4 - 0.0
27/04:00pm 16.8 13.4 10.6 67 3.3 NNE 19 24 10 13 1015.6 - 0.0
27/03:30pm 17.4 13.7 10.2 62 3.8 NNE 20 26 11 14 1015.8 - 0.0
27/03:00pm 17.9 14.2 10.0 60 4.2 NNE 20 24 11 13 1016.0 1016.0 0.0
27/02:30pm 17.9 13.4 10.2 60 4.1 NNE 24 28 13 15 1016.0 - 0.0
27/02:00pm 18.7 14.6 10.1 57 4.6 NNE 22 26 12 14 1016.3 - 0.0
27/01:30pm 18.4 14.2 11.0 62 4.0 NE 24 30 13 16 1016.6 - 0.0
27/01:00pm 18.5 15.7 11.3 63 3.9 NNE 17 24 9 13 1017.1 - 0.0
27/12:30pm 18.9 16.4 11.0 60 4.3 NNE 15 20 8 11 1017.6 - 0.0
27/12:00pm 19.4 17.1 9.1 51 5.4 N 11 17 6 9 1018.2 1018.2 0.0
27/11:30am 18.7 15.9 6.9 46 5.9 N 11 15 6 8 1018.9 - 0.0
27/11:00am 18.6 16.9 9.7 56 4.7 N 9 13 5 7 1019.6 - 0.0
27/10:30am 17.9 14.9 10.6 62 3.9 N 17 22 9 12 1019.8 - 0.0
27/10:00am 17.4 14.0 11.1 66 3.4 N 20 24 11 13 1020.0 - 0.0
27/09:30am 16.7 14.6 11.1 69 3.0 N 13 17 7 9 1020.2 - 0.0
27/09:00am 15.9 14.3 11.4 74 2.4 N 11 17 6 9 1020.4 1020.4 0.6
27/08:30am 14.1 12.8 11.3 83 1.5 NW 9 11 5 6 1020.5 - 0.6
27/08:00am 12.8 11.3 10.7 87 1.1 WNW 9 15 5 8 1020.6 - 0.6
27/07:30am 12.5 11.0 10.4 87 1.1 NNW 9 13 5 7 1020.4 - 0.6
27/07:00am 12.2 10.2 10.2 87 1.0 N 11 19 6 10 1020.3 - 0.6
27/06:30am 11.2 9.5 9.8 91 0.7 N 9 15 5 8 1020.1 - 0.6
27/06:00am 11.0 9.2 9.6 91 0.7 NW 9 13 5 7 1020.2 1020.2 0.6
27/05:30am 11.5 9.4 9.9 90 0.8 WNW 11 13 6 7 1020.3 - 0.6
27/05:00am 11.5 9.7 9.3 86 1.1 N 9 11 5 6 1020.3 - 0.6
27/04:30am 11.5 8.9 9.5 87 1.0 N 13 13 7 7 1020.3 - 0.6
27/04:00am 11.7 9.5 9.5 86 1.1 N 11 11 6 6 1020.3 - 0.6
27/03:30am 12.0 9.9 9.8 86 1.1 N 11 13 6 7 1020.6 - 0.6
27/03:00am 11.2 8.9 9.0 86 1.1 NNW 11 13 6 7 1020.7 1020.8 0.6
27/02:30am 11.6 9.3 9.0 84 1.3 N 11 13 6 7 1020.9 - 0.6
27/02:00am 11.7 9.5 9.5 86 1.1 N 11 13 6 7 1021.1 - 0.6
27/01:30am 12.0 10.2 9.6 85 1.2 NW 9 11 5 6 1021.1 - 0.6
27/01:00am 13.1 11.4 10.0 81 1.6 WNW 9 11 5 6 1021.2 - 0.6
27/12:30am 12.9 10.9 10.0 82 1.5 NW 11 13 6 7 1021.4 - 0.6
27/12:00am 12.5 10.6 9.1 80 1.7 W 9 15 5 8 1021.6 1021.6 0.6
 
Date/Time
EST
Temp
°C
App
Temp
°C
Dew
Point
°C
Rel
Hum
%
Delta-T
°C
Wind Press
QNH
hPa
Press
MSL
hPa
Rain since
9am
mm
Dir  Spd
km/h
Gust
km/h
Spd
kts
Gust
kts
26/11:30pm 13.1 11.0 9.6 79 1.8 NW 11 13 6 7 1021.7 - 0.6
26/11:00pm 13.5 11.9 10.2 80 1.7 W 9 13 5 7 1021.8 - 0.6
26/10:30pm 13.6 11.7 10.5 81 1.6 WNW 11 13 6 7 1021.8 - 0.6
26/10:00pm 13.6 11.2 10.1 79 1.8 WNW 13 17 7 9 1022.0 - 0.6
26/09:30pm 14.0 10.4 9.9 76 2.1 W 19 20 10 11 1022.0 - 0.6
26/09:00pm 13.6 11.2 10.1 79 1.8 NW 13 17 7 9 1022.1 1022.1 0.6
26/08:30pm 13.4 10.9 9.7 78 1.9 NW 13 17 7 9 1022.1 - 0.6
26/08:00pm 12.9 10.4 9.8 81 1.6 WNW 13 15 7 8 1022.0 - 0.6
26/07:30pm 13.2 10.9 10.3 82 1.5 WNW 13 19 7 10 1021.7 - 0.6
26/07:00pm 13.8 10.3 10.3 79 1.8 W 19 22 10 12 1021.4 - 0.6
26/06:30pm 15.0 11.3 10.0 72 2.6 WSW 20 30 11 16 1021.3 - 0.6
26/06:00pm 14.9 11.6 10.9 77 2.1 SW 19 26 10 14 1021.2 1021.2 0.6
26/05:30pm 15.1 10.5 10.9 76 2.2 SW 26 32 14 17 1020.8 - 0.6
26/05:00pm 15.2 10.2 11.1 76 2.2 SW 28 33 15 18 1020.8 - 0.6
26/04:30pm 15.3 10.3 11.0 75 2.3 SW 28 35 15 19 1020.6 - 0.6
26/04:00pm 15.6 9.9 11.3 75 2.3 SW 32 37 17 20 1020.6 - 0.6
26/03:30pm 15.8 9.8 10.9 72 2.6 SW 33 41 18 22 1020.6 - 0.6
26/03:00pm 15.9 9.6 11.2 73 2.5 SW 35 46 19 25 1020.2 1020.2 0.6
26/02:30pm 16.0 9.7 10.9 72 2.7 SW 35 43 19 23 1020.2 - 0.6
26/02:00pm 15.9 10.1 11.6 75 2.3 SW 33 41 18 22 1020.3 - 0.6
26/01:30pm 16.0 9.8 11.3 73 2.5 WSW 35 44 19 24 1020.4 - 0.6
26/01:00pm 15.6 10.7 12.7 83 1.6 WSW 30 35 16 19 1020.6 - 0.6
26/12:30pm 14.7 9.0 12.9 89 1.0 SW 35 41 19 22 1020.8 - 0.6
26/12:00pm 14.5 7.7 13.0 91 0.8 WSW 41 46 22 25 1020.8 1020.8 0.4
26/11:30am 14.7 9.1 13.3 91 0.8 WSW 35 46 19 25 1020.9 - 0.0
26/11:00am 16.3 10.2 11.7 74 2.5 WSW 35 44 19 24 1020.9 - 0.0
26/10:30am 16.1 10.1 10.8 71 2.8 WSW 33 43 18 23 1021.1 - 0.0
26/10:00am 15.6 11.6 8.9 64 3.4 W 20 24 11 13 1021.2 - 0.0
26/09:30am 15.1 11.0 8.6 65 3.3 W 20 26 11 14 1021.0 - 0.0
26/09:00am 14.5 10.5 8.1 65 3.2 WNW 19 22 10 12 1020.8 1020.8 0.0
26/08:30am 13.8 10.7 8.8 72 2.5 WNW 15 20 8 11 1020.5 - 0.0
26/08:00am 12.8 9.6 8.4 74 2.2 WNW 15 20 8 11 1020.1 - 0.0
26/07:30am 13.2 10.2 7.7 69 2.7 WNW 13 17 7 9 1019.7 - 0.0
26/07:00am 12.6 9.7 8.1 74 2.2 NW 13 17 7 9 1019.4 - 0.0
26/06:30am 12.3 9.6 8.9 80 1.7 W 13 17 7 9 1019.1 - 0.0
26/06:00am 12.6 9.9 8.8 77 1.9 W 13 15 7 8 1018.8 1018.8 0.0
26/05:30am 13.8 11.0 8.4 70 2.7 WNW 13 17 7 9 1018.4 - 0.0
26/05:00am 14.1 10.7 7.6 65 3.2 NW 15 20 8 11 1018.3 - 0.0
26/04:30am 13.9 10.7 8.5 70 2.7 WNW 15 19 8 10 1018.2 - 0.0
26/04:00am 13.5 10.6 8.3 71 2.6 WNW 13 17 7 9 1018.2 - 0.0
26/03:30am 13.2 10.0 8.6 73 2.3 WNW 15 19 8 10 1018.1 - 0.0
26/03:00am 13.3 10.5 8.7 73 2.3 WNW 13 19 7 10 1018.2 1018.2 0.0
26/02:30am 13.8 10.8 9.1 73 2.4 NW 15 19 8 10 1018.4 - 0.0
26/02:00am 14.0 11.5 9.7 75 2.2 NW 13 19 7 10 1018.6 - 0.0
26/01:30am 13.4 10.9 9.7 78 1.9 NW 13 15 7 8 1018.4 - 0.0
26/01:00am 13.0 11.0 10.1 82 1.5 WNW 11 15 6 8 1018.5 - 0.0
26/12:30am 13.0 11.0 10.1 82 1.5 NW 11 13 6 7 1018.7 - 0.0
26/12:00am 12.3 9.3 9.3 82 1.5 NNW 15 17 8 9 1018.8 1018.8 0.0
 
Date/Time
EST
Temp
°C
App
Temp
°C
Dew
Point
°C
Rel
Hum
%
Delta-T
°C
Wind Press
QNH
hPa
Press
MSL
hPa
Rain since
9am
mm
Dir  Spd
km/h
Gust
km/h
Spd
kts
Gust
kts
25/11:30pm 12.7 10.2 9.8 82 1.5 NW 13 17 7 9 1019.0 - 0.0
25/11:00pm 12.8 10.7 9.9 82 1.5 NW 11 15 6 8 1019.0 - 0.0
25/10:30pm 12.9 10.4 9.8 81 1.6 NW 13 17 7 9 1019.1 - 0.0
25/10:00pm 12.8 10.0 9.9 82 1.5 NW 15 17 8 9 1019.0 - 0.0
25/09:30pm 13.3 10.3 9.1 76 2.1 NW 15 17 8 9 1019.0 - 0.0
25/09:00pm 13.2 10.4 9.9 80 1.7 WNW 15 19 8 10 1019.1 1019.1 0.0
25/08:30pm 13.2 10.0 9.9 80 1.7 WNW 17 19 9 10 1019.2 - 0.0
25/08:00pm 13.3 10.6 10.2 81 1.6 W 15 17 8 9 1018.9 - 0.0
25/07:30pm 13.5 10.7 10.0 79 1.8 WNW 15 19 8 10 1018.9 - 0.0
25/07:00pm 13.5 11.1 10.0 79 1.8 NW 13 17 7 9 1018.8 - 0.0
25/06:30pm 15.3 12.1 10.1 71 2.7 SW 17 22 9 12 1018.6 - 0.0
25/06:00pm 15.5 11.8 9.5 67 3.1 SW 19 20 10 11 1018.3 1018.3 0.0
25/05:30pm 15.7 11.9 9.7 67 3.1 SSW 20 26 11 14 1018.1 - 0.0
25/05:00pm 15.8 11.7 10.1 69 3.0 SSW 22 28 12 15 1017.9 - 0.0
25/04:30pm 15.8 11.3 9.9 68 3.1 SSW 24 30 13 16 1017.9 - 0.0
25/04:00pm 16.0 11.1 9.9 67 3.2 S 26 30 14 16 1017.8 - 0.0
25/03:30pm 16.3 11.1 10.4 68 3.1 SSW 28 32 15 17 1017.8 - 0.0
25/03:00pm 16.6 11.5 10.6 67 3.2 SSW 28 32 15 17 1017.5 1017.5 0.0

Other Formats:

Comma delimited format used in spreadsheet applications
http://www.bom.gov.au/fwo/IDV60801/IDV60801.94933.axf

JavaScript Object Notation format (JSON) in row-major order
http://www.bom.gov.au/fwo/IDV60801/IDV60801.94933.json